Belmont, Ohio
Current Conditions -  °F | °C
As of 5:53 PM on Tuesday 27 Jan 2015 (Local Time) from KHLG Reporting Station
Haze Haze  
Wind Chill: 12°   Ceiling: 2500
Heat Index: 20°   Visibility: 5mi
Dew Point: 15°   Wind: 6mph
Humidity: 81%   Direction: 310°NW
Pressure: 30.05"   Gusts: NA
Location:  40.03°N, 81.04°W
Report Text: KHLG 272253Z 31005KT 5SM HZ FEW015 OVC025 M07/M09 A3005 RMK AO2 SNB11E50 SLP196 P0000 T10671094
Loading
Personal Weather Stations






























Interactive Weather Map New forecast layout! Learn more

10-Day Weather Forecast

Advertisements
Track Severe Weather on mobile